sensor_id;sensor_type;location;lat;lon;timestamp;pressure;altitude;pressure_sealevel;temperature;humidity
17072;BME280;7731;50.720;6.912;2024-03-02T00:01:16;98620.47;;;7.81;100.00
17072;BME280;7731;50.720;6.912;2024-03-02T00:03:47;98621.75;;;7.74;98.82
17072;BME280;7731;50.720;6.912;2024-03-02T00:06:34;98622.50;;;7.76;98.57
17072;BME280;7731;50.720;6.912;2024-03-02T00:09:10;98618.97;;;7.64;99.98
17072;BME280;7731;50.720;6.912;2024-03-02T00:11:41;98625.00;;;7.90;99.05
17072;BME280;7731;50.720;6.912;2024-03-02T00:14:12;98611.69;;;7.85;98.02
17072;BME280;7731;50.720;6.912;2024-03-02T00:16:42;98611.69;;;7.85;96.31
17072;BME280;7731;50.720;6.912;2024-03-02T00:19:13;98601.66;;;7.82;96.61
17072;BME280;7731;50.720;6.912;2024-03-02T00:21:43;98602.28;;;7.85;96.85
17072;BME280;7731;50.720;6.912;2024-03-02T00:24:29;98600.22;;;7.78;97.18
17072;BME280;7731;50.720;6.912;2024-03-02T00:27:05;98592.91;;;7.72;96.79
17072;BME280;7731;50.720;6.912;2024-03-02T00:29:41;98586.72;;;7.76;97.16
17072;BME280;7731;50.720;6.912;2024-03-02T00:32:17;98582.31;;;7.78;96.79
17072;BME280;7731;50.720;6.912;2024-03-02T00:34:47;98583.03;;;7.80;97.79
17072;BME280;7731;50.720;6.912;2024-03-02T00:37:17;98581.78;;;7.73;97.84
17072;BME280;7731;50.720;6.912;2024-03-02T00:40:00;98591.59;;;7.51;99.85
17072;BME280;7731;50.720;6.912;2024-03-02T00:42:32;98585.13;;;7.46;100.00
17072;BME280;7731;50.720;6.912;2024-03-02T00:45:08;98587.72;;;7.31;100.00
17072;BME280;7731;50.720;6.912;2024-03-02T00:47:39;98591.63;;;7.37;100.00
17072;BME280;7731;50.720;6.912;2024-03-02T00:50:10;98584.69;;;7.39;100.00
17072;BME280;7731;50.720;6.912;2024-03-02T00:52:52;98575.66;;;7.33;100.00
17072;BME280;7731;50.720;6.912;2024-03-02T00:55:35;98585.25;;;7.30;100.00
17072;BME280;7731;50.720;6.912;2024-03-02T00:58:11;98585.69;;;7.37;100.00
17072;BME280;7731;50.720;6.912;2024-03-02T01:00:41;98578.94;;;7.36;100.00
17072;BME280;7731;50.720;6.912;2024-03-02T01:03:12;98581.03;;;7.43;100.00
17072;BME280;7731;50.720;6.912;2024-03-02T01:05:43;98578.41;;;7.30;100.00
17072;BME280;7731;50.720;6.912;2024-03-02T01:08:16;98582.78;;;7.28;100.00
17072;BME280;7731;50.720;6.912;2024-03-02T01:10:49;98590.94;;;7.21;100.00
17072;BME280;7731;50.720;6.912;2024-03-02T01:13:21;98581.97;;;7.28;100.00
17072;BME280;7731;50.720;6.912;2024-03-02T01:15:54;98578.53;;;7.14;100.00
17072;BME280;7731;50.720;6.912;2024-03-02T01:18:25;98581.72;;;7.04;100.00
17072;BME280;7731;50.720;6.912;2024-03-02T01:20:58;98595.41;;;7.03;100.00
17072;BME280;7731;50.720;6.912;2024-03-02T01:23:29;98586.44;;;6.95;100.00
17072;BME280;7731;50.720;6.912;2024-03-02T01:26:02;98589.75;;;6.97;100.00
17072;BME280;7731;50.720;6.912;2024-03-02T01:28:33;98585.28;;;7.01;100.00
17072;BME280;7731;50.720;6.912;2024-03-02T01:31:04;98576.59;;;6.89;100.00
17072;BME280;7731;50.720;6.912;2024-03-02T01:33:36;98585.56;;;6.82;100.00
17072;BME280;7731;50.720;6.912;2024-03-02T01:36:06;98581.72;;;6.89;100.00
17072;BME280;7731;50.720;6.912;2024-03-02T01:38:45;98575.34;;;6.82;100.00
17072;BME280;7731;50.720;6.912;2024-03-02T01:41:18;98576.59;;;6.89;100.00
17072;BME280;7731;50.720;6.912;2024-03-02T01:43:48;98580.06;;;7.03;100.00
17072;BME280;7731;50.720;6.912;2024-03-02T01:46:19;98572.78;;;6.96;100.00
17072;BME280;7731;50.720;6.912;2024-03-02T01:48:49;98574.69;;;7.07;100.00
17072;BME280;7731;50.720;6.912;2024-03-02T01:51:22;98574.44;;;6.97;100.00
17072;BME280;7731;50.720;6.912;2024-03-02T01:53:53;98574.97;;;7.03;100.00
17072;BME280;7731;50.720;6.912;2024-03-02T01:56:26;98574.34;;;6.99;100.00
17072;BME280;7731;50.720;6.912;2024-03-02T01:58:56;98571.22;;;7.08;100.00
17072;BME280;7731;50.720;6.912;2024-03-02T02:01:26;98561.84;;;7.09;100.00
17072;BME280;7731;50.720;6.912;2024-03-02T02:03:58;98570.50;;;7.06;100.00
17072;BME280;7731;50.720;6.912;2024-03-02T02:06:28;98565.28;;;7.08;100.00
17072;BME280;7731;50.720;6.912;2024-03-02T02:08:59;98565.28;;;7.08;100.00
17072;BME280;7731;50.720;6.912;2024-03-02T02:11:35;98560.91;;;6.95;100.00
17072;BME280;7731;50.720;6.912;2024-03-02T02:14:07;98557.84;;;6.90;100.00
17072;BME280;7731;50.720;6.912;2024-03-02T02:16:37;98547.00;;;6.87;100.00
17072;BME280;7731;50.720;6.912;2024-03-02T02:19:08;98547.72;;;6.89;100.00
17072;BME280;7731;50.720;6.912;2024-03-02T02:21:42;98551.63;;;6.80;100.00
17072;BME280;7731;50.720;6.912;2024-03-02T02:24:13;98554.94;;;6.82;100.00
17072;BME280;7731;50.720;6.912;2024-03-02T02:26:43;98557.03;;;6.90;100.00
17072;BME280;7731;50.720;6.912;2024-03-02T02:29:13;98551.63;;;6.94;100.00
17072;BME280;7731;50.720;6.912;2024-03-02T02:31:44;98548.78;;;6.85;100.00
17072;BME280;7731;50.720;6.912;2024-03-02T02:34:17;98547.63;;;6.90;100.00
17072;BME280;7731;50.720;6.912;2024-03-02T02:36:50;98549.72;;;6.98;100.00
17072;BME280;7731;50.720;6.912;2024-03-02T02:39:24;98547.63;;;6.90;100.00
17072;BME280;7731;50.720;6.912;2024-03-02T02:41:55;98538.31;;;7.04;100.00
17072;BME280;7731;50.720;6.912;2024-03-02T02:44:30;98551.44;;;6.97;100.00
17072;BME280;7731;50.720;6.912;2024-03-02T02:47:00;98551.38;;;6.99;100.00
17072;BME280;7731;50.720;6.912;2024-03-02T02:49:31;98548.72;;;7.01;100.00
17072;BME280;7731;50.720;6.912;2024-03-02T02:52:10;98545.22;;;7.02;100.00
17072;BME280;7731;50.720;6.912;2024-03-02T02:54:40;98554.63;;;7.01;100.00
17072;BME280;7731;50.720;6.912;2024-03-02T02:57:11;98548.25;;;6.94;100.00
17072;BME280;7731;50.720;6.912;2024-03-02T02:59:43;98543.03;;;6.95;100.00
17072;BME280;7731;50.720;6.912;2024-03-02T03:02:14;98533.22;;;7.04;100.00
17072;BME280;7731;50.720;6.912;2024-03-02T03:04:44;98548.34;;;6.92;100.00
17072;BME280;7731;50.720;6.912;2024-03-02T03:07:17;98538.31;;;6.89;100.00
17072;BME280;7731;50.720;6.912;2024-03-02T03:09:53;98538.31;;;7.04;100.00
17072;BME280;7731;50.720;6.912;2024-03-02T03:12:26;98541.22;;;6.83;100.00
17072;BME280;7731;50.720;6.912;2024-03-02T03:14:56;98538.94;;;6.78;100.00
17072;BME280;7731;50.720;6.912;2024-03-02T03:17:29;98540.34;;;6.70;100.00
17072;BME280;7731;50.720;6.912;2024-03-02T03:20:04;98541.97;;;6.85;100.00
17072;BME280;7731;50.720;6.912;2024-03-02T03:22:42;98546.25;;;6.99;100.00
17072;BME280;7731;50.720;6.912;2024-03-02T03:25:13;98557.84;;;6.90;100.00
17072;BME280;7731;50.720;6.912;2024-03-02T03:27:43;98556.53;;;6.83;100.00
17072;BME280;7731;50.720;6.912;2024-03-02T03:30:17;98557.19;;;6.87;100.00
17072;BME280;7731;50.720;6.912;2024-03-02T03:32:47;98565.31;;;6.93;100.00
17072;BME280;7731;50.720;6.912;2024-03-02T03:35:18;98556.28;;;7.02;100.00
17072;BME280;7731;50.720;6.912;2024-03-02T03:37:54;98560.28;;;7.06;100.00
17072;BME280;7731;50.720;6.912;2024-03-02T03:40:24;98562.19;;;7.03;100.00
17072;BME280;7731;50.720;6.912;2024-03-02T03:42:54;98564.84;;;7.01;100.00
17072;BME280;7731;50.720;6.912;2024-03-02T03:45:25;98557.94;;;6.74;100.00
17072;BME280;7731;50.720;6.912;2024-03-02T03:47:55;98551.81;;;6.77;100.00
17072;BME280;7731;50.720;6.912;2024-03-02T03:50:29;98562.59;;;6.82;100.00
17072;BME280;7731;50.720;6.912;2024-03-02T03:53:14;98559.28;;;6.66;100.00
17072;BME280;7731;50.720;6.912;2024-03-02T03:55:47;98561.47;;;6.57;100.00
17072;BME280;7731;50.720;6.912;2024-03-02T03:58:18;98551.63;;;6.51;100.00
17072;BME280;7731;50.720;6.912;2024-03-02T04:01:00;98565.81;;;6.41;100.00
17072;BME280;7731;50.720;6.912;2024-03-02T04:03:38;98565.84;;;6.70;100.00
17072;BME280;7731;50.720;6.912;2024-03-02T04:06:11;98573.22;;;6.60;100.00
17072;BME280;7731;50.720;6.912;2024-03-02T04:08:47;98567.66;;;6.53;100.00
17072;BME280;7731;50.720;6.912;2024-03-02T04:11:17;98573.84;;;6.49;100.00
17072;BME280;7731;50.720;6.912;2024-03-02T04:13:48;98565.84;;;6.70;100.00
17072;BME280;7731;50.720;6.912;2024-03-02T04:16:23;98568.03;;;6.90;100.00
17072;BME280;7731;50.720;6.912;2024-03-02T04:18:57;98570.75;;;7.02;100.00
17072;BME280;7731;50.720;6.912;2024-03-02T04:21:27;98581.97;;;7.13;100.00
17072;BME280;7731;50.720;6.912;2024-03-02T04:24:00;98584.59;;;7.26;100.00
17072;BME280;7731;50.720;6.912;2024-03-02T04:26:47;98577.59;;;7.30;100.00
17072;BME280;7731;50.720;6.912;2024-03-02T04:29:17;98591.19;;;7.30;100.00
17072;BME280;7731;50.720;6.912;2024-03-02T04:31:50;98581.84;;;7.44;100.00
17072;BME280;7731;50.720;6.912;2024-03-02T04:34:21;98580.66;;;7.49;100.00
17072;BME280;7731;50.720;6.912;2024-03-02T04:36:54;98585.41;;;7.56;100.00
17072;BME280;7731;50.720;6.912;2024-03-02T04:39:35;98584.84;;;7.50;100.00
17072;BME280;7731;50.720;6.912;2024-03-02T04:42:08;98579.22;;;7.45;100.00
17072;BME280;7731;50.720;6.912;2024-03-02T04:44:45;98578.59;;;7.42;100.00
17072;BME280;7731;50.720;6.912;2024-03-02T04:47:15;98588.34;;;7.35;100.00
17072;BME280;7731;50.720;6.912;2024-03-02T04:49:45;98588.34;;;7.35;100.00
17072;BME280;7731;50.720;6.912;2024-03-02T04:52:16;98595.91;;;7.51;100.00
17072;BME280;7731;50.720;6.912;2024-03-02T04:54:59;98605.38;;;7.49;100.00
17072;BME280;7731;50.720;6.912;2024-03-02T04:57:42;98611.47;;;7.61;100.00
17072;BME280;7731;50.720;6.912;2024-03-02T05:00:14;98613.91;;;7.77;100.00
17072;BME280;7731;50.720;6.912;2024-03-02T05:02:47;98613.09;;;7.76;99.76
17072;BME280;7731;50.720;6.912;2024-03-02T05:05:20;98616.44;;;7.77;100.00
17072;BME280;7731;50.720;6.912;2024-03-02T05:07:50;98617.59;;;7.73;100.00
17072;BME280;7731;50.720;6.912;2024-03-02T05:10:23;98609.53;;;7.64;100.00
17072;BME280;7731;50.720;6.912;2024-03-02T05:12:53;98616.59;;;7.61;100.00
17072;BME280;7731;50.720;6.912;2024-03-02T05:15:28;98614.25;;;7.43;100.00
17072;BME280;7731;50.720;6.912;2024-03-02T05:18:06;98610.16;;;7.41;100.00
17072;BME280;7731;50.720;6.912;2024-03-02T05:20:41;98612.78;;;7.25;100.00
17072;BME280;7731;50.720;6.912;2024-03-02T05:23:12;98615.63;;;7.20;100.00
17072;BME280;7731;50.720;6.912;2024-03-02T05:25:44;98606.16;;;7.22;100.00
17072;BME280;7731;50.720;6.912;2024-03-02T05:28:20;98608.44;;;6.98;100.00
17072;BME280;7731;50.720;6.912;2024-03-02T05:30:56;98608.06;;;6.90;100.00
17072;BME280;7731;50.720;6.912;2024-03-02T05:33:27;98611.34;;;6.92;100.00
17072;BME280;7731;50.720;6.912;2024-03-02T05:35:58;98610.53;;;6.91;100.00
17072;BME280;7731;50.720;6.912;2024-03-02T05:38:34;98618.03;;;6.94;100.00
17072;BME280;7731;50.720;6.912;2024-03-02T05:41:07;98621.84;;;6.87;100.00
17072;BME280;7731;50.720;6.912;2024-03-02T05:43:39;98623.44;;;6.74;100.00
17072;BME280;7731;50.720;6.912;2024-03-02T05:46:12;98618.56;;;6.85;100.00
17072;BME280;7731;50.720;6.912;2024-03-02T05:48:43;98616.91;;;6.84;100.00
17072;BME280;7731;50.720;6.912;2024-03-02T05:51:13;98617.63;;;6.86;100.00
17072;BME280;7731;50.720;6.912;2024-03-02T05:53:46;98603.22;;;6.71;100.00
17072;BME280;7731;50.720;6.912;2024-03-02T05:56:19;98615.06;;;6.57;100.00
17072;BME280;7731;50.720;6.912;2024-03-02T05:58:50;98615.59;;;6.63;100.00
17072;BME280;7731;50.720;6.912;2024-03-02T06:01:34;98614.97;;;6.59;100.00
17072;BME280;7731;50.720;6.912;2024-03-02T06:04:05;98615.19;;;6.40;100.00
17072;BME280;7731;50.720;6.912;2024-03-02T06:06:38;98614.03;;;6.30;100.00
17072;BME280;7731;50.720;6.912;2024-03-02T06:09:09;98606.56;;;6.57;100.00
17072;BME280;7731;50.720;6.912;2024-03-02T06:11:42;98610.16;;;6.38;100.00
17072;BME280;7731;50.720;6.912;2024-03-02T06:14:13;98620.38;;;6.38;100.00
17072;BME280;7731;50.720;6.912;2024-03-02T06:16:43;98616.66;;;6.44;100.00
17072;BME280;7731;50.720;6.912;2024-03-02T06:19:13;98622.13;;;6.52;100.00
17072;BME280;7731;50.720;6.912;2024-03-02T06:21:44;98615.44;;;6.66;100.00
17072;BME280;7731;50.720;6.912;2024-03-02T06:24:14;98615.25;;;6.69;100.00
17072;BME280;7731;50.720;6.912;2024-03-02T06:26:52;98608.72;;;6.79;100.00
17072;BME280;7731;50.720;6.912;2024-03-02T06:29:22;98617.00;;;6.83;100.00
17072;BME280;7731;50.720;6.912;2024-03-02T06:32:02;98616.81;;;6.86;100.00
17072;BME280;7731;50.720;6.912;2024-03-02T06:34:35;98616.19;;;7.11;100.00
17072;BME280;7731;50.720;6.912;2024-03-02T06:37:15;98612.63;;;6.99;100.00
17072;BME280;7731;50.720;6.912;2024-03-02T06:39:45;98617.03;;;7.11;100.00
17072;BME280;7731;50.720;6.912;2024-03-02T06:42:18;98621.94;;;7.14;100.00
17072;BME280;7731;50.720;6.912;2024-03-02T06:44:51;98626.22;;;7.14;100.00
17072;BME280;7731;50.720;6.912;2024-03-02T06:47:21;98628.41;;;7.06;100.00
17072;BME280;7731;50.720;6.912;2024-03-02T06:49:58;98632.41;;;6.95;100.00
17072;BME280;7731;50.720;6.912;2024-03-02T06:52:42;98633.59;;;7.19;100.00
17072;BME280;7731;50.720;6.912;2024-03-02T06:55:16;98634.78;;;6.98;100.00
17072;BME280;7731;50.720;6.912;2024-03-02T06:57:52;98634.72;;;7.14;100.00
17072;BME280;7731;50.720;6.912;2024-03-02T07:00:23;98647.75;;;7.10;100.00
17072;BME280;7731;50.720;6.912;2024-03-02T07:02:53;98641.09;;;7.07;100.00
17072;BME280;7731;50.720;6.912;2024-03-02T07:05:23;98638.88;;;7.15;100.00
17072;BME280;7731;50.720;6.912;2024-03-02T07:07:54;98639.72;;;7.16;100.00
17072;BME280;7731;50.720;6.912;2024-03-02T07:10:24;98651.03;;;7.12;100.00
17072;BME280;7731;50.720;6.912;2024-03-02T07:13:03;98654.56;;;7.09;100.00
17072;BME280;7731;50.720;6.912;2024-03-02T07:15:34;98662.88;;;7.27;100.00
17072;BME280;7731;50.720;6.912;2024-03-02T07:18:33;98662.06;;;7.41;100.00
17072;BME280;7731;50.720;6.912;2024-03-02T07:21:09;98658.50;;;7.29;100.00
17072;BME280;7731;50.720;6.912;2024-03-02T07:23:39;98656.50;;;7.35;100.00
17072;BME280;7731;50.720;6.912;2024-03-02T07:26:11;98665.44;;;7.56;100.00
17072;BME280;7731;50.720;6.912;2024-03-02T07:28:48;98667.81;;;7.59;100.00
17072;BME280;7731;50.720;6.912;2024-03-02T07:31:26;98658.09;;;7.64;100.00
17072;BME280;7731;50.720;6.912;2024-03-02T07:33:59;98645.88;;;7.69;100.00
17072;BME280;7731;50.720;6.912;2024-03-02T07:36:32;98660.09;;;7.74;100.00
17072;BME280;7731;50.720;6.912;2024-03-02T07:39:03;98664.84;;;7.80;100.00
17072;BME280;7731;50.720;6.912;2024-03-02T07:41:34;98677.44;;;7.83;100.00
17072;BME280;7731;50.720;6.912;2024-03-02T07:44:10;98680.94;;;8.09;100.00
17072;BME280;7731;50.720;6.912;2024-03-02T07:46:56;98673.53;;;8.04;100.00
17072;BME280;7731;50.720;6.912;2024-03-02T07:49:27;98674.31;;;8.19;100.00
17072;BME280;7731;50.720;6.912;2024-03-02T07:51:57;98677.56;;;8.63;96.91
17072;BME280;7731;50.720;6.912;2024-03-02T07:54:27;98670.44;;;9.70;92.67
17072;BME280;7731;50.720;6.912;2024-03-02T07:57:00;98669.56;;;12.03;77.31
17072;BME280;7731;50.720;6.912;2024-03-02T07:59:33;98660.16;;;13.81;66.92
17072;BME280;7731;50.720;6.912;2024-03-02T08:02:03;98662.88;;;13.89;59.50
17072;BME280;7731;50.720;6.912;2024-03-02T08:04:36;98661.25;;;14.86;57.36
17072;BME280;7731;50.720;6.912;2024-03-02T08:07:07;98676.50;;;14.10;56.09
17072;BME280;7731;50.720;6.912;2024-03-02T08:09:39;98682.22;;;14.43;56.82
17072;BME280;7731;50.720;6.912;2024-03-02T08:12:10;98688.75;;;13.27;59.00
17072;BME280;7731;50.720;6.912;2024-03-02T08:14:43;98698.00;;;11.22;66.93
17072;BME280;7731;50.720;6.912;2024-03-02T08:17:13;98697.78;;;11.25;71.60
17072;BME280;7731;50.720;6.912;2024-03-02T08:19:44;98702.22;;;11.12;73.45
17072;BME280;7731;50.720;6.912;2024-03-02T08:22:21;98702.47;;;11.43;70.42
17072;BME280;7731;50.720;6.912;2024-03-02T08:24:52;98700.16;;;10.82;74.74
17072;BME280;7731;50.720;6.912;2024-03-02T08:27:26;98696.16;;;11.47;73.57
17072;BME280;7731;50.720;6.912;2024-03-02T08:30:03;98705.22;;;12.73;67.60
17072;BME280;7731;50.720;6.912;2024-03-02T08:32:34;98698.53;;;14.54;59.50
17072;BME280;7731;50.720;6.912;2024-03-02T08:35:14;98686.00;;;14.98;54.81
17072;BME280;7731;50.720;6.912;2024-03-02T08:37:50;98686.00;;;16.37;54.05
17072;BME280;7731;50.720;6.912;2024-03-02T08:40:20;98683.72;;;16.96;51.02
17072;BME280;7731;50.720;6.912;2024-03-02T08:42:51;98681.41;;;16.49;50.89
17072;BME280;7731;50.720;6.912;2024-03-02T08:45:26;98681.00;;;16.61;49.62
17072;BME280;7731;50.720;6.912;2024-03-02T08:47:57;98669.41;;;18.12;45.92
17072;BME280;7731;50.720;6.912;2024-03-02T08:50:27;98664.72;;;18.24;44.13
17072;BME280;7731;50.720;6.912;2024-03-02T08:52:57;98667.38;;;19.29;42.55
17072;BME280;7731;50.720;6.912;2024-03-02T08:55:28;98675.94;;;18.49;44.50
17072;BME280;7731;50.720;6.912;2024-03-02T08:58:01;98664.53;;;18.74;43.08
17072;BME280;7731;50.720;6.912;2024-03-02T09:00:34;98673.94;;;19.17;41.30
17072;BME280;7731;50.720;6.912;2024-03-02T09:03:05;98671.53;;;18.90;42.71
17072;BME280;7731;50.720;6.912;2024-03-02T09:05:35;98677.38;;;20.58;39.16
17072;BME280;7731;50.720;6.912;2024-03-02T09:08:09;98682.91;;;19.06;41.05
17072;BME280;7731;50.720;6.912;2024-03-02T09:10:42;98674.28;;;19.05;40.66
17072;BME280;7731;50.720;6.912;2024-03-02T09:13:12;98684.03;;;17.62;43.59
17072;BME280;7731;50.720;6.912;2024-03-02T09:15:45;98674.69;;;19.34;40.89
17072;BME280;7731;50.720;6.912;2024-03-02T09:18:16;98678.00;;;18.04;43.23
17072;BME280;7731;50.720;6.912;2024-03-02T09:20:52;98677.84;;;18.06;42.90
17072;BME280;7731;50.720;6.912;2024-03-02T09:23:23;98676.84;;;17.90;43.18
17072;BME280;7731;50.720;6.912;2024-03-02T09:25:55;98680.16;;;18.74;41.99
17072;BME280;7731;50.720;6.912;2024-03-02T09:28:26;98676.50;;;19.25;40.42
17072;BME280;7731;50.720;6.912;2024-03-02T09:31:01;98679.69;;;19.43;39.49
17072;BME280;7731;50.720;6.912;2024-03-02T09:33:31;98691.72;;;20.39;37.26
17072;BME280;7731;50.720;6.912;2024-03-02T09:36:16;98689.03;;;19.69;38.89
17072;BME280;7731;50.720;6.912;2024-03-02T09:38:50;98693.38;;;19.85;38.83
17072;BME280;7731;50.720;6.912;2024-03-02T09:41:20;98680.50;;;20.76;37.05
17072;BME280;7731;50.720;6.912;2024-03-02T09:43:54;98680.41;;;20.46;38.00
17072;BME280;7731;50.720;6.912;2024-03-02T09:46:30;98683.56;;;18.75;39.34
17072;BME280;7731;50.720;6.912;2024-03-02T09:49:02;98684.94;;;19.27;39.38
17072;BME280;7731;50.720;6.912;2024-03-02T09:51:33;98693.31;;;16.59;44.01
17072;BME280;7731;50.720;6.912;2024-03-02T09:54:03;98686.66;;;18.29;41.15
17072;BME280;7731;50.720;6.912;2024-03-02T09:56:51;98688.97;;;19.46;38.31
17072;BME280;7731;50.720;6.912;2024-03-02T09:59:24;98691.09;;;19.42;37.05
17072;BME280;7731;50.720;6.912;2024-03-02T10:02:02;98687.28;;;20.47;35.18
17072;BME280;7731;50.720;6.912;2024-03-02T10:04:44;98687.44;;;19.12;36.25
17072;BME280;7731;50.720;6.912;2024-03-02T10:07:27;98678.53;;;18.57;37.82
17072;BME280;7731;50.720;6.912;2024-03-02T10:09:57;98677.03;;;18.13;38.95
17072;BME280;7731;50.720;6.912;2024-03-02T10:12:28;98681.94;;;18.33;39.32
17072;BME280;7731;50.720;6.912;2024-03-02T10:15:04;98672.31;;;18.83;38.15
17072;BME280;7731;50.720;6.912;2024-03-02T10:17:40;98673.75;;;20.21;36.05
17072;BME280;7731;50.720;6.912;2024-03-02T10:20:24;98672.88;;;19.82;35.62
17072;BME280;7731;50.720;6.912;2024-03-02T10:23:09;98671.16;;;20.21;35.20
17072;BME280;7731;50.720;6.912;2024-03-02T10:25:43;98668.06;;;20.40;34.80
17072;BME280;7731;50.720;6.912;2024-03-02T10:28:27;98666.38;;;20.01;35.56
17072;BME280;7731;50.720;6.912;2024-03-02T10:30:58;98655.47;;;19.35;37.12
17072;BME280;7731;50.720;6.912;2024-03-02T10:33:31;98658.84;;;19.43;36.79
17072;BME280;7731;50.720;6.912;2024-03-02T10:36:03;98658.69;;;19.85;37.09
17072;BME280;7731;50.720;6.912;2024-03-02T10:38:34;98655.44;;;19.74;37.22
17072;BME280;7731;50.720;6.912;2024-03-02T10:41:17;98659.84;;;18.20;39.47
17072;BME280;7731;50.720;6.912;2024-03-02T10:43:48;98669.25;;;17.20;42.58
17072;BME280;7731;50.720;6.912;2024-03-02T10:46:29;98662.78;;;16.89;42.80
17072;BME280;7731;50.720;6.912;2024-03-02T10:49:04;98650.91;;;17.13;42.38
17072;BME280;7731;50.720;6.912;2024-03-02T10:51:35;98663.19;;;15.86;45.66
17072;BME280;7731;50.720;6.912;2024-03-02T10:54:11;98665.28;;;15.73;46.81
17072;BME280;7731;50.720;6.912;2024-03-02T10:56:46;98667.69;;;15.19;47.34
17072;BME280;7731;50.720;6.912;2024-03-02T10:59:27;98656.66;;;14.50;49.30
17072;BME280;7731;50.720;6.912;2024-03-02T11:02:03;98667.84;;;13.61;51.54
17072;BME280;7731;50.720;6.912;2024-03-02T11:04:40;98673.47;;;13.76;53.00
17072;BME280;7731;50.720;6.912;2024-03-02T11:07:18;98663.28;;;13.44;53.73
17072;BME280;7731;50.720;6.912;2024-03-02T11:10:01;98653.31;;;13.29;54.63
17072;BME280;7731;50.720;6.912;2024-03-02T11:12:46;98660.34;;;12.96;56.11
17072;BME280;7731;50.720;6.912;2024-03-02T11:15:19;98658.06;;;13.65;56.37
17072;BME280;7731;50.720;6.912;2024-03-02T11:17:51;98654.19;;;14.39;54.45
17072;BME280;7731;50.720;6.912;2024-03-02T11:20:27;98665.47;;;13.79;55.49
17072;BME280;7731;50.720;6.912;2024-03-02T11:23:07;98659.00;;;13.54;55.90
17072;BME280;7731;50.720;6.912;2024-03-02T11:25:37;98646.06;;;14.24;55.24
17072;BME280;7731;50.720;6.912;2024-03-02T11:28:08;98653.34;;;13.80;55.25
17072;BME280;7731;50.720;6.912;2024-03-02T11:30:54;98647.22;;;13.71;55.63
17072;BME280;7731;50.720;6.912;2024-03-02T11:33:30;98642.06;;;14.59;52.97
17072;BME280;7731;50.720;6.912;2024-03-02T11:36:06;98642.38;;;13.97;53.89
17072;BME280;7731;50.720;6.912;2024-03-02T11:38:39;98644.41;;;14.52;52.55
17072;BME280;7731;50.720;6.912;2024-03-02T11:41:16;98653.41;;;14.38;53.21
17072;BME280;7731;50.720;6.912;2024-03-02T11:44:00;98656.66;;;14.21;54.67
17072;BME280;7731;50.720;6.912;2024-03-02T11:46:30;98652.28;;;14.02;55.68
17072;BME280;7731;50.720;6.912;2024-03-02T11:49:00;98660.91;;;12.79;60.14
17072;BME280;7731;50.720;6.912;2024-03-02T11:51:35;98663.44;;;12.90;61.12
17072;BME280;7731;50.720;6.912;2024-03-02T11:54:08;98660.88;;;12.69;62.30
17072;BME280;7731;50.720;6.912;2024-03-02T11:56:42;98656.13;;;13.16;61.55
17072;BME280;7731;50.720;6.912;2024-03-02T11:59:13;98636.66;;;13.33;60.61
17072;BME280;7731;50.720;6.912;2024-03-02T12:01:43;98624.50;;;13.55;59.36
17072;BME280;7731;50.720;6.912;2024-03-02T12:04:14;98621.56;;;14.47;56.06
17072;BME280;7731;50.720;6.912;2024-03-02T12:06:55;98608.09;;;14.54;55.91
17072;BME280;7731;50.720;6.912;2024-03-02T12:09:28;98609.09;;;15.28;53.19
17072;BME280;7731;50.720;6.912;2024-03-02T12:12:04;98607.56;;;15.63;51.38
17072;BME280;7731;50.720;6.912;2024-03-02T12:14:36;98595.22;;;15.75;51.61
17072;BME280;7731;50.720;6.912;2024-03-02T12:17:06;98594.47;;;14.81;53.32
17072;BME280;7731;50.720;6.912;2024-03-02T12:19:37;98591.22;;;14.50;54.23
17072;BME280;7731;50.720;6.912;2024-03-02T12:22:10;98585.56;;;14.36;56.71
17072;BME280;7731;50.720;6.912;2024-03-02T12:24:42;98585.81;;;14.43;55.79
17072;BME280;7731;50.720;6.912;2024-03-02T12:27:17;98575.00;;;14.57;55.93
17072;BME280;7731;50.720;6.912;2024-03-02T12:29:48;98576.41;;;14.61;55.84
17072;BME280;7731;50.720;6.912;2024-03-02T12:32:19;98566.31;;;14.68;55.58
17072;BME280;7731;50.720;6.912;2024-03-02T12:34:52;98571.13;;;13.55;58.16
17072;BME280;7731;50.720;6.912;2024-03-02T12:37:42;98573.63;;;13.26;60.03
17072;BME280;7731;50.720;6.912;2024-03-02T12:40:14;98570.47;;;13.63;59.25
17072;BME280;7731;50.720;6.912;2024-03-02T12:42:46;98571.94;;;14.34;57.42
17072;BME280;7731;50.720;6.912;2024-03-02T12:45:17;98579.97;;;14.31;56.96
17072;BME280;7731;50.720;6.912;2024-03-02T12:47:55;98572.63;;;14.26;56.78
17072;BME280;7731;50.720;6.912;2024-03-02T12:50:34;98566.78;;;14.24;57.45
17072;BME280;7731;50.720;6.912;2024-03-02T12:53:15;98563.06;;;14.46;56.24
17072;BME280;7731;50.720;6.912;2024-03-02T12:55:49;98564.50;;;13.72;57.84
17072;BME280;7731;50.720;6.912;2024-03-02T12:58:21;98574.41;;;13.67;59.62
17072;BME280;7731;50.720;6.912;2024-03-02T13:01:06;98576.44;;;13.83;59.28
17072;BME280;7731;50.720;6.912;2024-03-02T13:03:41;98569.94;;;13.89;59.55
17072;BME280;7731;50.720;6.912;2024-03-02T13:06:16;98561.75;;;14.23;58.26
17072;BME280;7731;50.720;6.912;2024-03-02T13:08:50;98562.59;;;14.04;60.29
17072;BME280;7731;50.720;6.912;2024-03-02T13:11:22;98564.50;;;13.63;60.21
17072;BME280;7731;50.720;6.912;2024-03-02T13:14:05;98570.75;;;13.80;60.61
17072;BME280;7731;50.720;6.912;2024-03-02T13:16:45;98562.88;;;13.91;60.14
17072;BME280;7731;50.720;6.912;2024-03-02T13:19:17;98560.69;;;13.77;60.00
17072;BME280;7731;50.720;6.912;2024-03-02T13:21:48;98555.81;;;13.83;61.03
17072;BME280;7731;50.720;6.912;2024-03-02T13:24:21;98548.41;;;14.37;59.53
17072;BME280;7731;50.720;6.912;2024-03-02T13:26:53;98558.34;;;14.99;57.28
17072;BME280;7731;50.720;6.912;2024-03-02T13:29:25;98549.81;;;14.12;57.86
17072;BME280;7731;50.720;6.912;2024-03-02T13:32:00;98550.09;;;14.09;59.28
17072;BME280;7731;50.720;6.912;2024-03-02T13:34:31;98552.69;;;13.99;59.13
17072;BME280;7731;50.720;6.912;2024-03-02T13:37:04;98534.88;;;13.96;59.48
17072;BME280;7731;50.720;6.912;2024-03-02T13:39:37;98540.00;;;14.16;59.90
17072;BME280;7731;50.720;6.912;2024-03-02T13:42:11;98541.94;;;14.04;59.15
17072;BME280;7731;50.720;6.912;2024-03-02T13:44:46;98529.03;;;13.94;59.70
17072;BME280;7731;50.720;6.912;2024-03-02T13:47:20;98530.50;;;14.06;58.78